sensor_id;sensor_type;location;lat;lon;timestamp;P1;durP1;ratioP1;P2;durP2;ratioP2
51927;SDS011;37953;52.806;18.270;2024-01-30T00:01:03;47.55;;;16.52;;
51927;SDS011;37953;52.806;18.270;2024-01-30T00:03:49;48.35;;;16.65;;
51927;SDS011;37953;52.806;18.270;2024-01-30T00:06:19;47.67;;;16.88;;
51927;SDS011;37953;52.806;18.270;2024-01-30T00:08:49;52.78;;;17.88;;
51927;SDS011;37953;52.806;18.270;2024-01-30T00:11:16;46.60;;;17.92;;
51927;SDS011;37953;52.806;18.270;2024-01-30T00:13:42;55.42;;;17.60;;
51927;SDS011;37953;52.806;18.270;2024-01-30T00:16:08;46.22;;;16.70;;
51927;SDS011;37953;52.806;18.270;2024-01-30T00:18:34;54.75;;;16.45;;
51927;SDS011;37953;52.806;18.270;2024-01-30T00:21:01;48.47;;;16.35;;
51927;SDS011;37953;52.806;18.270;2024-01-30T00:23:28;51.90;;;16.55;;
51927;SDS011;37953;52.806;18.270;2024-01-30T00:25:54;49.08;;;16.55;;
51927;SDS011;37953;52.806;18.270;2024-01-30T00:28:20;41.72;;;16.13;;
51927;SDS011;37953;52.806;18.270;2024-01-30T00:30:47;47.35;;;15.32;;
51927;SDS011;37953;52.806;18.270;2024-01-30T00:33:13;42.80;;;16.73;;
51927;SDS011;37953;52.806;18.270;2024-01-30T00:35:39;46.88;;;17.45;;
51927;SDS011;37953;52.806;18.270;2024-01-30T00:38:05;50.17;;;16.23;;
51927;SDS011;37953;52.806;18.270;2024-01-30T00:40:33;44.15;;;16.63;;
51927;SDS011;37953;52.806;18.270;2024-01-30T00:42:59;39.55;;;16.23;;
51927;SDS011;37953;52.806;18.270;2024-01-30T00:45:25;39.00;;;15.93;;
51927;SDS011;37953;52.806;18.270;2024-01-30T00:47:51;41.88;;;15.15;;
51927;SDS011;37953;52.806;18.270;2024-01-30T00:50:17;40.75;;;15.10;;
51927;SDS011;37953;52.806;18.270;2024-01-30T00:52:43;39.42;;;15.52;;
51927;SDS011;37953;52.806;18.270;2024-01-30T00:55:10;43.20;;;16.23;;
51927;SDS011;37953;52.806;18.270;2024-01-30T00:57:36;45.72;;;16.42;;
51927;SDS011;37953;52.806;18.270;2024-01-30T01:00:03;44.55;;;17.00;;
51927;SDS011;37953;52.806;18.270;2024-01-30T01:02:40;54.00;;;16.75;;
51927;SDS011;37953;52.806;18.270;2024-01-30T01:05:06;45.22;;;16.73;;
51927;SDS011;37953;52.806;18.270;2024-01-30T01:07:32;43.08;;;16.73;;
51927;SDS011;37953;52.806;18.270;2024-01-30T01:09:58;50.03;;;17.00;;
51927;SDS011;37953;52.806;18.270;2024-01-30T01:12:24;38.03;;;15.85;;
51927;SDS011;37953;52.806;18.270;2024-01-30T01:14:53;42.33;;;15.57;;
51927;SDS011;37953;52.806;18.270;2024-01-30T01:17:19;43.28;;;15.40;;
51927;SDS011;37953;52.806;18.270;2024-01-30T01:19:45;45.65;;;15.43;;
51927;SDS011;37953;52.806;18.270;2024-01-30T01:22:11;44.10;;;14.75;;
51927;SDS011;37953;52.806;18.270;2024-01-30T01:24:37;31.60;;;13.95;;
51927;SDS011;37953;52.806;18.270;2024-01-30T01:27:04;35.22;;;14.07;;
51927;SDS011;37953;52.806;18.270;2024-01-30T01:29:31;35.72;;;13.98;;
51927;SDS011;37953;52.806;18.270;2024-01-30T01:31:58;36.20;;;13.43;;
51927;SDS011;37953;52.806;18.270;2024-01-30T01:34:24;36.67;;;14.02;;
51927;SDS011;37953;52.806;18.270;2024-01-30T01:36:50;37.88;;;14.00;;
51927;SDS011;37953;52.806;18.270;2024-01-30T01:39:22;38.47;;;14.15;;
51927;SDS011;37953;52.806;18.270;2024-01-30T01:41:56;32.60;;;13.60;;
51927;SDS011;37953;52.806;18.270;2024-01-30T01:44:23;40.22;;;13.88;;
51927;SDS011;37953;52.806;18.270;2024-01-30T01:46:48;36.33;;;13.73;;
51927;SDS011;37953;52.806;18.270;2024-01-30T01:49:15;44.58;;;14.15;;
51927;SDS011;37953;52.806;18.270;2024-01-30T01:51:41;30.42;;;13.13;;
51927;SDS011;37953;52.806;18.270;2024-01-30T01:54:17;38.63;;;13.93;;
51927;SDS011;37953;52.806;18.270;2024-01-30T01:56:44;37.78;;;14.40;;
51927;SDS011;37953;52.806;18.270;2024-01-30T01:59:10;48.90;;;14.35;;
51927;SDS011;37953;52.806;18.270;2024-01-30T02:01:39;35.38;;;14.15;;
51927;SDS011;37953;52.806;18.270;2024-01-30T02:04:09;44.70;;;14.65;;
51927;SDS011;37953;52.806;18.270;2024-01-30T02:06:35;41.85;;;14.65;;
51927;SDS011;37953;52.806;18.270;2024-01-30T02:09:01;41.15;;;14.32;;
51927;SDS011;37953;52.806;18.270;2024-01-30T02:11:27;37.33;;;14.98;;
51927;SDS011;37953;52.806;18.270;2024-01-30T02:13:54;40.58;;;14.20;;
51927;SDS011;37953;52.806;18.270;2024-01-30T02:16:20;37.15;;;14.20;;
51927;SDS011;37953;52.806;18.270;2024-01-30T02:18:46;43.78;;;14.57;;
51927;SDS011;37953;52.806;18.270;2024-01-30T02:21:16;34.97;;;13.52;;
51927;SDS011;37953;52.806;18.270;2024-01-30T02:23:43;38.78;;;15.48;;
51927;SDS011;37953;52.806;18.270;2024-01-30T02:26:12;37.75;;;13.98;;
51927;SDS011;37953;52.806;18.270;2024-01-30T02:28:38;39.97;;;15.80;;
51927;SDS011;37953;52.806;18.270;2024-01-30T02:31:04;45.65;;;15.40;;
51927;SDS011;37953;52.806;18.270;2024-01-30T02:33:31;45.28;;;15.27;;
51927;SDS011;37953;52.806;18.270;2024-01-30T02:35:57;48.10;;;15.70;;
51927;SDS011;37953;52.806;18.270;2024-01-30T02:38:24;43.22;;;15.68;;
51927;SDS011;37953;52.806;18.270;2024-01-30T02:40:52;35.40;;;15.40;;
51927;SDS011;37953;52.806;18.270;2024-01-30T02:43:18;45.40;;;16.17;;
51927;SDS011;37953;52.806;18.270;2024-01-30T02:45:45;49.78;;;14.90;;
51927;SDS011;37953;52.806;18.270;2024-01-30T02:48:11;38.67;;;15.55;;
51927;SDS011;37953;52.806;18.270;2024-01-30T02:50:37;40.17;;;15.55;;
51927;SDS011;37953;52.806;18.270;2024-01-30T02:53:03;44.15;;;14.85;;
51927;SDS011;37953;52.806;18.270;2024-01-30T02:55:29;40.53;;;15.07;;
51927;SDS011;37953;52.806;18.270;2024-01-30T02:57:55;39.90;;;14.93;;
51927;SDS011;37953;52.806;18.270;2024-01-30T03:00:22;39.50;;;14.95;;
51927;SDS011;37953;52.806;18.270;2024-01-30T03:02:49;40.05;;;14.52;;
51927;SDS011;37953;52.806;18.270;2024-01-30T03:05:15;36.88;;;14.50;;
51927;SDS011;37953;52.806;18.270;2024-01-30T03:07:41;38.42;;;15.23;;
51927;SDS011;37953;52.806;18.270;2024-01-30T03:10:07;38.45;;;15.05;;
51927;SDS011;37953;52.806;18.270;2024-01-30T03:12:33;40.17;;;14.38;;
51927;SDS011;37953;52.806;18.270;2024-01-30T03:15:00;39.03;;;14.60;;
51927;SDS011;37953;52.806;18.270;2024-01-30T03:17:26;38.22;;;14.52;;
51927;SDS011;37953;52.806;18.270;2024-01-30T03:19:52;75.72;;;29.85;;
51927;SDS011;37953;52.806;18.270;2024-01-30T03:22:18;105.57;;;42.05;;
51927;SDS011;37953;52.806;18.270;2024-01-30T03:24:47;134.45;;;52.50;;
51927;SDS011;37953;52.806;18.270;2024-01-30T03:27:13;159.40;;;61.92;;
51927;SDS011;37953;52.806;18.270;2024-01-30T03:29:39;89.55;;;35.30;;
51927;SDS011;37953;52.806;18.270;2024-01-30T03:32:05;86.53;;;34.35;;
51927;SDS011;37953;52.806;18.270;2024-01-30T03:34:31;65.35;;;24.52;;
51927;SDS011;37953;52.806;18.270;2024-01-30T03:36:57;59.63;;;19.83;;
51927;SDS011;37953;52.806;18.270;2024-01-30T03:39:23;52.92;;;18.15;;
51927;SDS011;37953;52.806;18.270;2024-01-30T03:41:49;41.17;;;16.30;;
51927;SDS011;37953;52.806;18.270;2024-01-30T03:44:15;50.85;;;16.67;;
51927;SDS011;37953;52.806;18.270;2024-01-30T03:46:41;52.72;;;19.10;;
51927;SDS011;37953;52.806;18.270;2024-01-30T03:49:07;58.58;;;19.25;;
51927;SDS011;37953;52.806;18.270;2024-01-30T03:51:35;50.22;;;18.45;;
51927;SDS011;37953;52.806;18.270;2024-01-30T03:54:01;45.70;;;16.88;;
51927;SDS011;37953;52.806;18.270;2024-01-30T03:56:29;55.60;;;23.38;;
51927;SDS011;37953;52.806;18.270;2024-01-30T03:58:55;91.40;;;27.08;;
51927;SDS011;37953;52.806;18.270;2024-01-30T04:01:22;92.75;;;25.90;;
51927;SDS011;37953;52.806;18.270;2024-01-30T04:03:48;85.88;;;24.73;;
51927;SDS011;37953;52.806;18.270;2024-01-30T04:06:14;69.03;;;22.65;;
51927;SDS011;37953;52.806;18.270;2024-01-30T04:08:41;61.60;;;20.38;;
51927;SDS011;37953;52.806;18.270;2024-01-30T04:11:07;64.88;;;19.92;;
51927;SDS011;37953;52.806;18.270;2024-01-30T04:13:33;63.42;;;19.90;;
51927;SDS011;37953;52.806;18.270;2024-01-30T04:15:59;62.78;;;19.70;;
51927;SDS011;37953;52.806;18.270;2024-01-30T04:18:29;53.58;;;19.40;;
51927;SDS011;37953;52.806;18.270;2024-01-30T04:20:55;52.15;;;18.85;;
51927;SDS011;37953;52.806;18.270;2024-01-30T04:23:21;48.97;;;18.13;;
51927;SDS011;37953;52.806;18.270;2024-01-30T04:25:47;48.65;;;18.65;;
51927;SDS011;37953;52.806;18.270;2024-01-30T04:28:13;48.33;;;17.98;;
51927;SDS011;37953;52.806;18.270;2024-01-30T04:30:40;44.00;;;17.45;;
51927;SDS011;37953;52.806;18.270;2024-01-30T04:33:06;47.55;;;19.35;;
51927;SDS011;37953;52.806;18.270;2024-01-30T04:35:32;60.20;;;20.75;;
51927;SDS011;37953;52.806;18.270;2024-01-30T04:37:58;60.92;;;22.15;;
51927;SDS011;37953;52.806;18.270;2024-01-30T04:40:24;73.28;;;25.65;;
51927;SDS011;37953;52.806;18.270;2024-01-30T04:42:51;84.68;;;31.25;;
51927;SDS011;37953;52.806;18.270;2024-01-30T04:45:16;89.97;;;32.88;;
51927;SDS011;37953;52.806;18.270;2024-01-30T04:47:43;104.45;;;34.95;;
51927;SDS011;37953;52.806;18.270;2024-01-30T04:50:09;97.35;;;31.63;;
51927;SDS011;37953;52.806;18.270;2024-01-30T04:52:35;78.97;;;28.58;;
51927;SDS011;37953;52.806;18.270;2024-01-30T04:55:01;71.43;;;29.38;;
51927;SDS011;37953;52.806;18.270;2024-01-30T04:57:28;79.38;;;27.70;;
51927;SDS011;37953;52.806;18.270;2024-01-30T05:02:25;58.17;;;22.58;;
51927;SDS011;37953;52.806;18.270;2024-01-30T05:04:51;58.10;;;19.88;;
51927;SDS011;37953;52.806;18.270;2024-01-30T05:07:17;59.67;;;19.90;;
51927;SDS011;37953;52.806;18.270;2024-01-30T05:09:47;58.22;;;22.80;;
51927;SDS011;37953;52.806;18.270;2024-01-30T05:12:13;54.55;;;20.73;;
51927;SDS011;37953;52.806;18.270;2024-01-30T05:14:39;52.95;;;18.33;;
51927;SDS011;37953;52.806;18.270;2024-01-30T05:17:05;48.65;;;17.50;;
51927;SDS011;37953;52.806;18.270;2024-01-30T05:19:43;43.63;;;17.33;;
51927;SDS011;37953;52.806;18.270;2024-01-30T05:22:09;48.47;;;18.70;;
51927;SDS011;37953;52.806;18.270;2024-01-30T05:24:36;48.00;;;17.92;;
51927;SDS011;37953;52.806;18.270;2024-01-30T05:27:03;53.70;;;18.63;;
51927;SDS011;37953;52.806;18.270;2024-01-30T05:29:29;53.03;;;18.77;;
51927;SDS011;37953;52.806;18.270;2024-01-30T05:31:55;45.58;;;17.73;;
51927;SDS011;37953;52.806;18.270;2024-01-30T05:34:21;50.58;;;16.88;;
51927;SDS011;37953;52.806;18.270;2024-01-30T05:36:47;42.17;;;16.88;;
51927;SDS011;37953;52.806;18.270;2024-01-30T05:39:13;56.38;;;16.80;;
51927;SDS011;37953;52.806;18.270;2024-01-30T05:41:39;36.35;;;15.55;;
51927;SDS011;37953;52.806;18.270;2024-01-30T05:44:05;40.78;;;15.60;;
51927;SDS011;37953;52.806;18.270;2024-01-30T05:46:31;45.40;;;17.92;;
51927;SDS011;37953;52.806;18.270;2024-01-30T05:48:57;44.47;;;18.88;;
51927;SDS011;37953;52.806;18.270;2024-01-30T05:51:24;42.92;;;19.05;;
51927;SDS011;37953;52.806;18.270;2024-01-30T05:53:50;47.90;;;19.17;;
51927;SDS011;37953;52.806;18.270;2024-01-30T05:56:16;53.85;;;17.45;;
51927;SDS011;37953;52.806;18.270;2024-01-30T05:58:42;51.67;;;18.02;;
51927;SDS011;37953;52.806;18.270;2024-01-30T06:01:09;45.42;;;17.35;;
51927;SDS011;37953;52.806;18.270;2024-01-30T06:03:37;37.10;;;15.82;;
51927;SDS011;37953;52.806;18.270;2024-01-30T06:06:04;44.70;;;16.77;;
51927;SDS011;37953;52.806;18.270;2024-01-30T06:08:30;42.90;;;15.85;;
51927;SDS011;37953;52.806;18.270;2024-01-30T06:10:56;36.72;;;15.15;;
51927;SDS011;37953;52.806;18.270;2024-01-30T06:13:22;38.38;;;15.57;;
51927;SDS011;37953;52.806;18.270;2024-01-30T06:15:49;40.00;;;16.45;;
51927;SDS011;37953;52.806;18.270;2024-01-30T06:18:14;41.08;;;16.23;;
51927;SDS011;37953;52.806;18.270;2024-01-30T06:20:41;53.47;;;16.55;;
51927;SDS011;37953;52.806;18.270;2024-01-30T06:23:06;51.47;;;19.83;;
51927;SDS011;37953;52.806;18.270;2024-01-30T06:25:33;56.63;;;22.52;;
51927;SDS011;37953;52.806;18.270;2024-01-30T06:27:58;61.90;;;22.58;;
51927;SDS011;37953;52.806;18.270;2024-01-30T06:30:25;48.65;;;19.48;;
51927;SDS011;37953;52.806;18.270;2024-01-30T06:32:51;51.05;;;19.60;;
51927;SDS011;37953;52.806;18.270;2024-01-30T06:35:17;51.83;;;18.77;;
51927;SDS011;37953;52.806;18.270;2024-01-30T06:37:43;53.13;;;19.45;;
51927;SDS011;37953;52.806;18.270;2024-01-30T06:40:09;48.28;;;19.08;;
51927;SDS011;37953;52.806;18.270;2024-01-30T06:42:35;52.85;;;18.50;;
51927;SDS011;37953;52.806;18.270;2024-01-30T06:45:02;42.20;;;17.42;;
51927;SDS011;37953;52.806;18.270;2024-01-30T06:47:28;42.47;;;15.95;;
51927;SDS011;37953;52.806;18.270;2024-01-30T06:50:03;39.85;;;16.95;;
51927;SDS011;37953;52.806;18.270;2024-01-30T06:52:29;52.28;;;17.98;;
51927;SDS011;37953;52.806;18.270;2024-01-30T06:54:59;40.08;;;16.48;;
51927;SDS011;37953;52.806;18.270;2024-01-30T06:57:24;50.83;;;18.52;;
51927;SDS011;37953;52.806;18.270;2024-01-30T06:59:53;43.05;;;16.02;;
51927;SDS011;37953;52.806;18.270;2024-01-30T07:02:19;45.30;;;18.02;;
51927;SDS011;37953;52.806;18.270;2024-01-30T07:04:48;43.95;;;18.33;;
51927;SDS011;37953;52.806;18.270;2024-01-30T07:07:15;45.33;;;18.30;;
51927;SDS011;37953;52.806;18.270;2024-01-30T07:09:41;48.72;;;19.00;;
51927;SDS011;37953;52.806;18.270;2024-01-30T07:12:10;45.33;;;18.83;;
51927;SDS011;37953;52.806;18.270;2024-01-30T07:14:36;48.20;;;18.77;;
51927;SDS011;37953;52.806;18.270;2024-01-30T07:17:02;50.00;;;19.20;;
51927;SDS011;37953;52.806;18.270;2024-01-30T07:19:29;44.67;;;19.17;;
51927;SDS011;37953;52.806;18.270;2024-01-30T07:21:55;61.28;;;21.98;;
51927;SDS011;37953;52.806;18.270;2024-01-30T07:24:21;63.10;;;24.08;;
51927;SDS011;37953;52.806;18.270;2024-01-30T07:26:47;62.17;;;22.33;;
51927;SDS011;37953;52.806;18.270;2024-01-30T07:29:13;59.13;;;20.17;;
51927;SDS011;37953;52.806;18.270;2024-01-30T07:31:39;59.38;;;22.58;;
51927;SDS011;37953;52.806;18.270;2024-01-30T07:34:06;79.75;;;29.08;;
51927;SDS011;37953;52.806;18.270;2024-01-30T07:36:32;91.43;;;32.97;;
51927;SDS011;37953;52.806;18.270;2024-01-30T07:38:58;68.63;;;27.25;;
51927;SDS011;37953;52.806;18.270;2024-01-30T07:41:24;64.32;;;27.58;;
51927;SDS011;37953;52.806;18.270;2024-01-30T07:43:50;80.47;;;35.05;;
51927;SDS011;37953;52.806;18.270;2024-01-30T07:46:17;68.72;;;28.08;;
51927;SDS011;37953;52.806;18.270;2024-01-30T07:48:44;71.25;;;30.20;;
51927;SDS011;37953;52.806;18.270;2024-01-30T07:51:09;87.07;;;35.63;;
51927;SDS011;37953;52.806;18.270;2024-01-30T07:53:45;137.20;;;51.25;;
51927;SDS011;37953;52.806;18.270;2024-01-30T07:56:11;83.97;;;35.42;;
51927;SDS011;37953;52.806;18.270;2024-01-30T07:58:37;63.65;;;27.60;;
51927;SDS011;37953;52.806;18.270;2024-01-30T08:01:03;56.72;;;23.13;;
51927;SDS011;37953;52.806;18.270;2024-01-30T08:03:30;67.97;;;24.77;;
51927;SDS011;37953;52.806;18.270;2024-01-30T08:05:59;65.20;;;23.97;;
51927;SDS011;37953;52.806;18.270;2024-01-30T08:08:26;51.80;;;21.05;;
51927;SDS011;37953;52.806;18.270;2024-01-30T08:10:52;51.92;;;19.73;;
51927;SDS011;37953;52.806;18.270;2024-01-30T08:13:18;58.25;;;19.42;;
51927;SDS011;37953;52.806;18.270;2024-01-30T08:15:44;48.20;;;20.50;;
51927;SDS011;37953;52.806;18.270;2024-01-30T08:18:11;46.88;;;18.60;;
51927;SDS011;37953;52.806;18.270;2024-01-30T08:20:37;56.72;;;19.05;;
51927;SDS011;37953;52.806;18.270;2024-01-30T08:23:12;52.65;;;18.45;;
51927;SDS011;37953;52.806;18.270;2024-01-30T08:25:38;54.95;;;18.33;;
51927;SDS011;37953;52.806;18.270;2024-01-30T08:28:04;52.90;;;16.75;;
51927;SDS011;37953;52.806;18.270;2024-01-30T08:30:30;44.10;;;16.55;;
51927;SDS011;37953;52.806;18.270;2024-01-30T08:32:57;42.47;;;16.70;;
51927;SDS011;37953;52.806;18.270;2024-01-30T08:35:26;38.47;;;15.32;;
51927;SDS011;37953;52.806;18.270;2024-01-30T08:37:52;41.42;;;15.80;;
51927;SDS011;37953;52.806;18.270;2024-01-30T08:40:19;38.17;;;14.95;;
51927;SDS011;37953;52.806;18.270;2024-01-30T08:42:46;36.67;;;13.88;;
51927;SDS011;37953;52.806;18.270;2024-01-30T08:45:13;43.33;;;13.98;;
51927;SDS011;37953;52.806;18.270;2024-01-30T08:47:40;29.75;;;12.70;;
51927;SDS011;37953;52.806;18.270;2024-01-30T08:50:06;31.75;;;13.10;;
51927;SDS011;37953;52.806;18.270;2024-01-30T08:52:33;35.67;;;13.10;;
51927;SDS011;37953;52.806;18.270;2024-01-30T08:54:59;37.22;;;13.55;;
51927;SDS011;37953;52.806;18.270;2024-01-30T08:57:26;29.02;;;12.98;;
51927;SDS011;37953;52.806;18.270;2024-01-30T08:59:54;26.00;;;11.80;;
51927;SDS011;37953;52.806;18.270;2024-01-30T09:02:20;32.90;;;13.27;;
51927;SDS011;37953;52.806;18.270;2024-01-30T09:04:46;28.90;;;12.60;;
51927;SDS011;37953;52.806;18.270;2024-01-30T09:07:12;25.02;;;11.40;;
51927;SDS011;37953;52.806;18.270;2024-01-30T09:09:39;30.48;;;12.23;;
51927;SDS011;37953;52.806;18.270;2024-01-30T09:12:09;29.55;;;9.52;;
51927;SDS011;37953;52.806;18.270;2024-01-30T09:14:37;25.60;;;11.00;;
51927;SDS011;37953;52.806;18.270;2024-01-30T09:17:04;32.47;;;12.55;;
51927;SDS011;37953;52.806;18.270;2024-01-30T09:19:30;28.88;;;12.13;;
51927;SDS011;37953;52.806;18.270;2024-01-30T09:21:56;29.58;;;11.80;;
51927;SDS011;37953;52.806;18.270;2024-01-30T09:24:22;34.20;;;13.15;;
51927;SDS011;37953;52.806;18.270;2024-01-30T09:26:49;29.98;;;13.10;;
51927;SDS011;37953;52.806;18.270;2024-01-30T09:29:35;31.80;;;12.70;;
51927;SDS011;37953;52.806;18.270;2024-01-30T09:32:11;28.98;;;12.10;;
51927;SDS011;37953;52.806;18.270;2024-01-30T09:34:37;40.47;;;12.77;;
51927;SDS011;37953;52.806;18.270;2024-01-30T09:37:14;28.15;;;11.35;;
51927;SDS011;37953;52.806;18.270;2024-01-30T09:39:41;30.08;;;11.85;;
51927;SDS011;37953;52.806;18.270;2024-01-30T09:44:43;28.05;;;12.25;;
51927;SDS011;37953;52.806;18.270;2024-01-30T09:47:10;29.85;;;12.25;;
51927;SDS011;37953;52.806;18.270;2024-01-30T09:49:36;40.97;;;12.98;;
51927;SDS011;37953;52.806;18.270;2024-01-30T09:52:05;29.98;;;13.07;;
51927;SDS011;37953;52.806;18.270;2024-01-30T09:54:32;34.28;;;14.02;;
51927;SDS011;37953;52.806;18.270;2024-01-30T09:56:58;36.20;;;16.00;;
51927;SDS011;37953;52.806;18.270;2024-01-30T09:59:24;38.10;;;15.48;;
51927;SDS011;37953;52.806;18.270;2024-01-30T10:01:51;40.63;;;16.52;;
51927;SDS011;37953;52.806;18.270;2024-01-30T10:04:17;43.13;;;17.58;;
51927;SDS011;37953;52.806;18.270;2024-01-30T10:06:43;48.03;;;16.48;;
51927;SDS011;37953;52.806;18.270;2024-01-30T10:09:10;40.58;;;16.65;;
51927;SDS011;37953;52.806;18.270;2024-01-30T10:11:36;37.63;;;16.10;;
51927;SDS011;37953;52.806;18.270;2024-01-30T10:14:02;40.65;;;17.17;;
51927;SDS011;37953;52.806;18.270;2024-01-30T10:16:29;47.17;;;19.02;;
51927;SDS011;37953;52.806;18.270;2024-01-30T10:18:55;46.88;;;17.55;;
51927;SDS011;37953;52.806;18.270;2024-01-30T10:21:21;35.47;;;15.43;;
51927;SDS011;37953;52.806;18.270;2024-01-30T10:23:47;38.97;;;15.93;;
51927;SDS011;37953;52.806;18.270;2024-01-30T10:26:15;34.40;;;14.30;;
51927;SDS011;37953;52.806;18.270;2024-01-30T10:28:51;35.38;;;14.73;;
51927;SDS011;37953;52.806;18.270;2024-01-30T10:31:17;35.25;;;14.77;;
51927;SDS011;37953;52.806;18.270;2024-01-30T10:33:44;38.88;;;15.95;;
51927;SDS011;37953;52.806;18.270;2024-01-30T10:36:12;40.30;;;17.20;;
51927;SDS011;37953;52.806;18.270;2024-01-30T10:38:41;46.50;;;20.35;;
51927;SDS011;37953;52.806;18.270;2024-01-30T10:41:09;50.55;;;20.65;;
51927;SDS011;37953;52.806;18.270;2024-01-30T10:43:42;54.28;;;20.83;;
51927;SDS011;37953;52.806;18.270;2024-01-30T10:46:21;41.85;;;18.48;;
51927;SDS011;37953;52.806;18.270;2024-01-30T10:49:02;62.58;;;19.77;;
51927;SDS011;37953;52.806;18.270;2024-01-30T10:51:30;51.97;;;19.88;;
51927;SDS011;37953;52.806;18.270;2024-01-30T10:53:57;42.85;;;18.52;;
51927;SDS011;37953;52.806;18.270;2024-01-30T10:56:24;36.50;;;14.60;;
51927;SDS011;37953;52.806;18.270;2024-01-30T10:58:51;34.28;;;14.93;;
51927;SDS011;37953;52.806;18.270;2024-01-30T11:01:19;31.23;;;13.70;;
51927;SDS011;37953;52.806;18.270;2024-01-30T11:03:54;30.98;;;14.32;;
51927;SDS011;37953;52.806;18.270;2024-01-30T11:06:22;30.35;;;12.50;;
51927;SDS011;37953;52.806;18.270;2024-01-30T11:09:05;32.35;;;12.43;;
51927;SDS011;37953;52.806;18.270;2024-01-30T11:11:58;32.10;;;12.85;;
51927;SDS011;37953;52.806;18.270;2024-01-30T11:16:52;29.85;;;11.77;;
51927;SDS011;37953;52.806;18.270;2024-01-30T11:19:24;34.67;;;12.35;;
51927;SDS011;37953;52.806;18.270;2024-01-30T11:21:54;41.03;;;15.90;;
51927;SDS011;37953;52.806;18.270;2024-01-30T11:24:22;42.53;;;17.05;;
51927;SDS011;37953;52.806;18.270;2024-01-30T11:26:57;37.15;;;16.17;;
51927;SDS011;37953;52.806;18.270;2024-01-30T11:29:28;34.75;;;15.32;;
51927;SDS011;37953;52.806;18.270;2024-01-30T11:31:55;32.70;;;14.30;;
51927;SDS011;37953;52.806;18.270;2024-01-30T11:34:28;30.13;;;12.40;;
51927;SDS011;37953;52.806;18.270;2024-01-30T11:36:58;32.47;;;13.45;;
51927;SDS011;37953;52.806;18.270;2024-01-30T11:39:35;32.28;;;13.43;;
51927;SDS011;37953;52.806;18.270;2024-01-30T11:42:02;30.00;;;12.63;;
51927;SDS011;37953;52.806;18.270;2024-01-30T11:44:30;30.33;;;12.60;;
51927;SDS011;37953;52.806;18.270;2024-01-30T11:46:57;32.53;;;12.65;;
51927;SDS011;37953;52.806;18.270;2024-01-30T11:49:23;37.67;;;12.60;;
51927;SDS011;37953;52.806;18.270;2024-01-30T11:51:49;28.58;;;12.80;;
51927;SDS011;37953;52.806;18.270;2024-01-30T11:54:18;32.60;;;12.55;;
51927;SDS011;37953;52.806;18.270;2024-01-30T11:56:45;27.00;;;12.70;;
51927;SDS011;37953;52.806;18.270;2024-01-30T11:59:11;34.05;;;12.65;;
51927;SDS011;37953;52.806;18.270;2024-01-30T12:01:37;40.60;;;14.43;;
51927;SDS011;37953;52.806;18.270;2024-01-30T12:04:03;38.50;;;15.20;;
51927;SDS011;37953;52.806;18.270;2024-01-30T12:06:34;46.50;;;14.40;;
51927;SDS011;37953;52.806;18.270;2024-01-30T12:09:02;40.70;;;13.80;;
51927;SDS011;37953;52.806;18.270;2024-01-30T12:11:44;39.25;;;14.38;;
51927;SDS011;37953;52.806;18.270;2024-01-30T12:14:13;40.42;;;15.65;;
51927;SDS011;37953;52.806;18.270;2024-01-30T12:16:52;34.15;;;15.02;;
51927;SDS011;37953;52.806;18.270;2024-01-30T12:21:54;35.40;;;12.43;;
51927;SDS011;37953;52.806;18.270;2024-01-30T12:24:25;35.00;;;14.10;;
51927;SDS011;37953;52.806;18.270;2024-01-30T12:26:52;33.20;;;13.18;;
51927;SDS011;37953;52.806;18.270;2024-01-30T12:29:21;34.28;;;13.30;;
51927;SDS011;37953;52.806;18.270;2024-01-30T12:31:48;31.65;;;12.85;;
51927;SDS011;37953;52.806;18.270;2024-01-30T12:34:14;32.92;;;13.38;;
51927;SDS011;37953;52.806;18.270;2024-01-30T12:36:43;45.13;;;13.57;;
51927;SDS011;37953;52.806;18.270;2024-01-30T12:39:12;37.30;;;14.38;;
51927;SDS011;37953;52.806;18.270;2024-01-30T12:41:40;37.40;;;15.40;;
51927;SDS011;37953;52.806;18.270;2024-01-30T12:44:06;44.95;;;17.10;;
51927;SDS011;37953;52.806;18.270;2024-01-30T12:46:36;34.80;;;14.70;;
51927;SDS011;37953;52.806;18.270;2024-01-30T12:49:02;35.60;;;14.45;;
51927;SDS011;37953;52.806;18.270;2024-01-30T12:51:28;40.70;;;15.52;;
51927;SDS011;37953;52.806;18.270;2024-01-30T12:56:34;41.05;;;15.63;;
51927;SDS011;37953;52.806;18.270;2024-01-30T12:59:00;49.13;;;18.40;;
51927;SDS011;37953;52.806;18.270;2024-01-30T13:01:27;40.85;;;18.65;;
51927;SDS011;37953;52.806;18.270;2024-01-30T13:03:53;33.53;;;15.82;;
51927;SDS011;37953;52.806;18.270;2024-01-30T13:06:23;41.30;;;17.77;;
51927;SDS011;37953;52.806;18.270;2024-01-30T13:08:48;40.88;;;17.33;;
51927;SDS011;37953;52.806;18.270;2024-01-30T13:11:15;49.97;;;19.55;;
51927;SDS011;37953;52.806;18.270;2024-01-30T13:13:41;51.70;;;17.52;;
51927;SDS011;37953;52.806;18.270;2024-01-30T13:16:07;45.13;;;18.80;;
51927;SDS011;37953;52.806;18.270;2024-01-30T13:18:33;51.20;;;21.20;;
51927;SDS011;37953;52.806;18.270;2024-01-30T13:20:59;57.13;;;22.52;;
51927;SDS011;37953;52.806;18.270;2024-01-30T13:23:25;47.33;;;19.30;;
51927;SDS011;37953;52.806;18.270;2024-01-30T13:25:52;44.58;;;18.88;;
51927;SDS011;37953;52.806;18.270;2024-01-30T13:28:19;51.28;;;19.70;;
51927;SDS011;37953;52.806;18.270;2024-01-30T13:30:45;44.65;;;18.25;;
51927;SDS011;37953;52.806;18.270;2024-01-30T13:33:22;41.22;;;17.02;;
51927;SDS011;37953;52.806;18.270;2024-01-30T13:35:48;38.20;;;16.25;;
51927;SDS011;37953;52.806;18.270;2024-01-30T13:38:14;33.53;;;15.30;;
51927;SDS011;37953;52.806;18.270;2024-01-30T13:40:41;31.70;;;13.93;;
51927;SDS011;37953;52.806;18.270;2024-01-30T13:43:07;36.30;;;14.63;;
51927;SDS011;37953;52.806;18.270;2024-01-30T13:45:33;29.55;;;13.38;;
51927;SDS011;37953;52.806;18.270;2024-01-30T13:47:59;35.03;;;14.40;;
51927;SDS011;37953;52.806;18.270;2024-01-30T13:50:28;44.55;;;15.65;;
51927;SDS011;37953;52.806;18.270;2024-01-30T13:52:54;36.63;;;14.68;;
51927;SDS011;37953;52.806;18.270;2024-01-30T13:55:20;37.97;;;13.20;;
51927;SDS011;37953;52.806;18.270;2024-01-30T13:57:46;30.52;;;13.30;;
51927;SDS011;37953;52.806;18.270;2024-01-30T14:00:12;34.03;;;15.23;;
51927;SDS011;37953;52.806;18.270;2024-01-30T14:02:48;47.72;;;17.50;;
51927;SDS011;37953;52.806;18.270;2024-01-30T14:05:15;32.10;;;14.20;;
51927;SDS011;37953;52.806;18.270;2024-01-30T14:07:41;46.25;;;19.90;;
51927;SDS011;37953;52.806;18.270;2024-01-30T14:10:09;85.07;;;34.40;;
51927;SDS011;37953;52.806;18.270;2024-01-30T14:12:38;89.75;;;37.47;;
51927;SDS011;37953;52.806;18.270;2024-01-30T14:15:06;80.63;;;29.05;;
51927;SDS011;37953;52.806;18.270;2024-01-30T14:17:33;43.42;;;20.55;;
51927;SDS011;37953;52.806;18.270;2024-01-30T14:19:59;44.33;;;18.77;;
51927;SDS011;37953;52.806;18.270;2024-01-30T14:22:25;31.83;;;15.40;;